Napa, CA

11:55 AM PDT on August 22, 2014 (GMT -0700)
Gordon Valley | Change Station
CLOSE
Current Station
Personal Weather Station
Location: Napa, CA
Elevation: 512 ft
Nearby Weather Stations

Elev 512 ft 38.34 °N, 122.11 °W | Updated 4 minutes ago

Clear
Clear
77.0 °F
Feels Like 79 °F
N
2.0
Wind Variable Wind from SSW
Gusts 5.0 mph

Today
High -- | Low -- °F
--% Chance of Precip.
Yesterday
High -- | Low -- °F
Precip. -- in
6:29 AM 7:52 PM
Waning Crescent, 7% visible
Pressure 29.91 in
Visibility 10.0 miles
Clouds Clear
Heat Index 79 °F
Dew Point 57 °F
Humidity 50%
Rainfall 0.00 in
Snow Depth Not available.
UV 8 out of 12
Pollen 7.30 out of 12
Air Quality Not available.
Flu Activity Not available.
METAR KSUU 221758Z AUTO 24022G25KT 10SM CLR 22/15 A2989 RMK AO2 PK WND 23028/09 SLP128 T02150150 10215 20153 53004 PNO $

More Conditions Fewer Conditions

Pressure 29.91 in
Visibility 10.0 miles
Clouds Clear
Heat Index 79 °F
Dew Point 57 °F
Humidity 50%
Rainfall 0.00 in
Snow Depth Not available.
UV 8 out of 12
Pollen 7.30 out of 12
Air Quality Not available.
Flu Activity Not available.
METAR KSUU 221758Z AUTO 24022G25KT 10SM CLR 22/15 A2989 RMK AO2 PK WND 23028/09 SLP128 T02150150 10215 20153 53004 PNO $

More Conditions Fewer Conditions

10-Day Weather Forecast

Almanac

Astronomy

Aug. 22, 2014 Rise Set
Actual Time 6:29 AM PDT 7:52 PM PDT
Civil Twilight 6:01 AM PDT 8:20 PM PDT
Nautical Twilight 5:28 AM PDT 8:53 PM PDT
Astronomical Twilight 4:53 AM PDT 9:28 PM PDT
Moon 3:57 AM PDT 6:03 PM PDT
Length of Visible Light 14h 18m
Length of Day
13h 23m
Tomorrow will be 2m 17s shorter.
Waning Crescent, 7% of the Moon is Illuminated
Today
Waning Crescent
Aug 25
New
Sep 2
First Quarter
Sep 8
Full
Sep 15
Last Quarter

Today's Extremes

State Highs State Lows

Community

WunderPhotos

Upload Photos

1,746,216 photos uploaded!

Nearby

Air Quality

  Air Quality AQ Index Pollutant
Yesterday Good
OZONE
Friday Good
OZONE
Saturday Good
OZONE
Sunday Good
OZONE
Monday Good
OZONE
Tuesday Moderate
OZONE
Wednesday Moderate
OZONE

Snow Depth

Station Depth Elevation
Echo Peak 0 in 7800 ft
CSS Lab 1 in 6900 ft
Forestdale Creek 0 in 8029 ft
Hagan's Meadow 0 in 8000 ft
Independence Camp 0 in 7000 ft

Earthquake Activity

City Distance Mag. Time & Date
Berkeley, California 33 miles 2.6 7:41 PM PDT
2014-08-16
Minimum magnitude displayed is 2.5.

Coastal Water Temperatures

Place Temperature
San Francisco, CA 64.9 °F
Richmond, CA 66.9 °F
Port Chicago, CA 70.0 °F

Nearby Weather Stations